Pensacola, FL

6:21 AM CDT on June 30, 2015 (GMT -0500)
Little Creek Subdivision | | Change Station
CLOSE
Current Station
Personal Weather Station
Location: Pensacola, FL
Elevation: 12 ft
Nearby Weather Stations
Active Advisory: Coastal Hazard Statement

Elev 12 ft 30.40 °N, 87.38 °W | Updated 1 second ago

Partly Cloudy
Partly Cloudy
80.6 °F
Feels Like 88 °F
N
4.5
Wind Variable Wind from ESE
Gusts 4.9 mph

Today
High -- | Low -- °F
--% Chance of Precip.
Yesterday
High -- | Low -- °F
Precip. -- in
5:50 AM 7:55 PM
Waxing Gibbous, 97% visible
Pressure 30.04 in
Visibility 7.0 miles
Clouds Few 1600 ft
Heat Index 88 °F
Dew Point 78 °F
Humidity 93%
Rainfall 0.00 in
Snow Depth Not available.
UV 0 out of 12
Pollen 3.00 out of 12
Air Quality Not available.
Flu Activity Sporadic
METAR KNPA 300956Z AUTO 23005KT 7SM FEW016 27/24 A3003 RMK AO2 SLP170 T02670239

More Conditions Fewer Conditions

Pressure 30.04 in
Visibility 7.0 miles
Clouds Few 1600 ft
Heat Index 88 °F
Dew Point 78 °F
Humidity 93%
Rainfall 0.00 in
Snow Depth Not available.
UV 0 out of 12
Pollen 3.00 out of 12
Air Quality Not available.
Flu Activity Sporadic
METAR KNPA 300956Z AUTO 23005KT 7SM FEW016 27/24 A3003 RMK AO2 SLP170 T02670239

More Conditions Fewer Conditions

10-Day Weather Forecast

×

Almanac

Astronomy

Jun. 30, 2015 Rise Set
Actual Time
Civil Twilight
Nautical Twilight
Astronomical Twilight
Moon
Length of Visible Light
Length of Day
Tomorrow will be .
, % of the Moon is Illuminated

Today's Extremes

State Highs State Lows

Community

WunderPhotos

Upload Photos

1,833,975 photos uploaded!

WunderBlogs® & News

Nearby

Air Quality

  Air Quality AQ Index Pollutant
Not available.

Snow Depth

Station Depth Elevation

Earthquake Activity

City Distance Mag. Time & Date
Minimum magnitude displayed is 2.5.

Coastal Water Temperatures

Place Temperature

Stations

Nearby Weather Stations

Station Location Temp. Windchill Dew Point Humidity Wind Precip. Elev Updated Type
                   
Coastal Hazard Statement
Statement as of 5:52 AM CDT on June 30, 2015

... High rip current risk in effect through Thursday morning...

The National Weather Service in Mobile has issued a high rip
current risk... which is in effect through Thursday morning.

* Timing... through Wednesday night.

* Impacts... frequent life-threatening rip currents are expected.
The surf is dangerous for all levels of swimmers.

Precautionary/preparedness actions...

There is a high risk of rip currents.

Rip currents are life-threatening to anyone entering the surf. If
you become caught in a rip current... Yell for help and remain
calm. Do not exhaust yourself and stay afloat while waiting for
help. If you have to swim out of a rip current... swim parallel to
shore and back toward the beach when possible. Do not attempt to
swim directly against a rip current as you will tire quickly.